sensor_id;sensor_type;location;lat;lon;timestamp;P1;durP1;ratioP1;P2;durP2;ratioP2
34144;SDS011;20422;53.014;8.886;2022-11-15T00:00:50;35.55;;;22.38;;
34144;SDS011;20422;53.014;8.886;2022-11-15T00:03:17;38.85;;;21.65;;
34144;SDS011;20422;53.014;8.886;2022-11-15T00:05:45;39.95;;;20.67;;
34144;SDS011;20422;53.014;8.886;2022-11-15T00:08:12;38.47;;;21.33;;
34144;SDS011;20422;53.014;8.886;2022-11-15T00:10:38;35.83;;;20.67;;
34144;SDS011;20422;53.014;8.886;2022-11-15T00:13:05;35.95;;;22.15;;
34144;SDS011;20422;53.014;8.886;2022-11-15T00:15:36;33.80;;;21.20;;
34144;SDS011;20422;53.014;8.886;2022-11-15T00:18:05;36.97;;;20.83;;
34144;SDS011;20422;53.014;8.886;2022-11-15T00:20:37;39.88;;;21.73;;
34144;SDS011;20422;53.014;8.886;2022-11-15T00:23:03;35.50;;;20.50;;
34144;SDS011;20422;53.014;8.886;2022-11-15T00:25:31;37.95;;;21.35;;
34144;SDS011;20422;53.014;8.886;2022-11-15T00:27:58;37.03;;;20.88;;
34144;SDS011;20422;53.014;8.886;2022-11-15T00:30:26;35.20;;;20.10;;
34144;SDS011;20422;53.014;8.886;2022-11-15T00:32:53;36.05;;;22.33;;
34144;SDS011;20422;53.014;8.886;2022-11-15T00:35:19;32.50;;;20.52;;
34144;SDS011;20422;53.014;8.886;2022-11-15T00:37:45;38.50;;;21.38;;
34144;SDS011;20422;53.014;8.886;2022-11-15T00:40:13;38.72;;;20.70;;
34144;SDS011;20422;53.014;8.886;2022-11-15T00:42:41;38.08;;;21.30;;
34144;SDS011;20422;53.014;8.886;2022-11-15T00:45:07;37.03;;;21.45;;
34144;SDS011;20422;53.014;8.886;2022-11-15T00:47:34;40.20;;;21.08;;
34144;SDS011;20422;53.014;8.886;2022-11-15T00:50:01;35.65;;;20.08;;
34144;SDS011;20422;53.014;8.886;2022-11-15T00:52:28;33.83;;;20.90;;
34144;SDS011;20422;53.014;8.886;2022-11-15T00:54:55;39.38;;;22.67;;
34144;SDS011;20422;53.014;8.886;2022-11-15T00:57:21;39.10;;;21.17;;
34144;SDS011;20422;53.014;8.886;2022-11-15T00:59:48;36.63;;;19.90;;
34144;SDS011;20422;53.014;8.886;2022-11-15T01:02:15;38.35;;;21.55;;
34144;SDS011;20422;53.014;8.886;2022-11-15T01:04:41;47.03;;;22.98;;
34144;SDS011;20422;53.014;8.886;2022-11-15T01:07:08;37.92;;;21.63;;
34144;SDS011;20422;53.014;8.886;2022-11-15T01:09:34;46.00;;;22.08;;
34144;SDS011;20422;53.014;8.886;2022-11-15T01:11:59;36.40;;;20.52;;
34144;SDS011;20422;53.014;8.886;2022-11-15T01:14:25;43.05;;;23.10;;
34144;SDS011;20422;53.014;8.886;2022-11-15T01:16:52;35.65;;;21.80;;
34144;SDS011;20422;53.014;8.886;2022-11-15T01:19:17;34.83;;;21.00;;
34144;SDS011;20422;53.014;8.886;2022-11-15T01:21:44;39.45;;;22.25;;
34144;SDS011;20422;53.014;8.886;2022-11-15T01:24:12;41.05;;;23.65;;
34144;SDS011;20422;53.014;8.886;2022-11-15T01:26:39;46.17;;;23.05;;
34144;SDS011;20422;53.014;8.886;2022-11-15T01:29:04;45.97;;;23.85;;
34144;SDS011;20422;53.014;8.886;2022-11-15T01:31:31;43.03;;;21.58;;
34144;SDS011;20422;53.014;8.886;2022-11-15T01:33:56;34.20;;;21.45;;
34144;SDS011;20422;53.014;8.886;2022-11-15T01:36:23;39.08;;;22.70;;
34144;SDS011;20422;53.014;8.886;2022-11-15T01:38:55;38.78;;;23.00;;
34144;SDS011;20422;53.014;8.886;2022-11-15T01:41:24;37.45;;;21.65;;
34144;SDS011;20422;53.014;8.886;2022-11-15T01:43:55;36.03;;;21.33;;
34144;SDS011;20422;53.014;8.886;2022-11-15T01:49:04;37.53;;;22.45;;
34144;SDS011;20422;53.014;8.886;2022-11-15T01:51:37;38.60;;;21.77;;
34144;SDS011;20422;53.014;8.886;2022-11-15T01:54:05;37.70;;;22.65;;
34144;SDS011;20422;53.014;8.886;2022-11-15T01:56:39;37.35;;;22.35;;
34144;SDS011;20422;53.014;8.886;2022-11-15T01:59:12;36.65;;;20.40;;
34144;SDS011;20422;53.014;8.886;2022-11-15T02:01:37;34.90;;;20.48;;
34144;SDS011;20422;53.014;8.886;2022-11-15T02:04:13;31.98;;;19.42;;
34144;SDS011;20422;53.014;8.886;2022-11-15T02:06:42;33.53;;;20.05;;
34144;SDS011;20422;53.014;8.886;2022-11-15T02:09:09;39.72;;;22.65;;
34144;SDS011;20422;53.014;8.886;2022-11-15T02:11:37;35.85;;;20.88;;
34144;SDS011;20422;53.014;8.886;2022-11-15T02:14:04;36.88;;;22.10;;
34144;SDS011;20422;53.014;8.886;2022-11-15T02:31:50;41.90;;;22.63;;
34144;SDS011;20422;53.014;8.886;2022-11-15T02:39:43;32.75;;;20.20;;
34144;SDS011;20422;53.014;8.886;2022-11-15T02:42:25;38.20;;;21.50;;
34144;SDS011;20422;53.014;8.886;2022-11-15T02:45:15;34.65;;;21.13;;
34144;SDS011;20422;53.014;8.886;2022-11-15T02:47:47;40.45;;;21.73;;
34144;SDS011;20422;53.014;8.886;2022-11-15T02:50:20;34.28;;;21.27;;
34144;SDS011;20422;53.014;8.886;2022-11-15T02:52:48;37.85;;;21.30;;
34144;SDS011;20422;53.014;8.886;2022-11-15T03:06:41;41.28;;;21.85;;
34144;SDS011;20422;53.014;8.886;2022-11-15T03:09:20;35.15;;;20.45;;
34144;SDS011;20422;53.014;8.886;2022-11-15T03:11:57;39.72;;;20.88;;
34144;SDS011;20422;53.014;8.886;2022-11-15T03:14:31;35.47;;;19.88;;
34144;SDS011;20422;53.014;8.886;2022-11-15T03:19:53;31.77;;;19.77;;
34144;SDS011;20422;53.014;8.886;2022-11-15T03:22:22;36.60;;;21.15;;
34144;SDS011;20422;53.014;8.886;2022-11-15T03:24:58;35.03;;;22.00;;
34144;SDS011;20422;53.014;8.886;2022-11-15T03:27:31;40.42;;;21.58;;
34144;SDS011;20422;53.014;8.886;2022-11-15T03:30:02;39.83;;;20.85;;
34144;SDS011;20422;53.014;8.886;2022-11-15T03:32:32;45.70;;;22.73;;
34144;SDS011;20422;53.014;8.886;2022-11-15T03:35:04;38.10;;;20.13;;
34144;SDS011;20422;53.014;8.886;2022-11-15T03:37:37;42.42;;;22.10;;
34144;SDS011;20422;53.014;8.886;2022-11-15T03:40:05;39.38;;;21.00;;
34144;SDS011;20422;53.014;8.886;2022-11-15T03:43:06;43.53;;;22.77;;
34144;SDS011;20422;53.014;8.886;2022-11-15T03:45:39;34.45;;;21.27;;
34144;SDS011;20422;53.014;8.886;2022-11-15T03:48:13;35.20;;;22.00;;
34144;SDS011;20422;53.014;8.886;2022-11-15T03:50:44;40.10;;;20.98;;
34144;SDS011;20422;53.014;8.886;2022-11-15T03:53:12;38.55;;;20.67;;
34144;SDS011;20422;53.014;8.886;2022-11-15T03:55:38;41.33;;;21.33;;
34144;SDS011;20422;53.014;8.886;2022-11-15T03:58:05;40.42;;;21.38;;
34144;SDS011;20422;53.014;8.886;2022-11-15T04:00:32;43.05;;;21.70;;
34144;SDS011;20422;53.014;8.886;2022-11-15T04:02:57;39.35;;;20.63;;
34144;SDS011;20422;53.014;8.886;2022-11-15T04:05:24;39.08;;;22.52;;
34144;SDS011;20422;53.014;8.886;2022-11-15T04:07:51;42.22;;;21.58;;
34144;SDS011;20422;53.014;8.886;2022-11-15T04:10:17;36.17;;;21.15;;
34144;SDS011;20422;53.014;8.886;2022-11-15T04:12:44;35.40;;;19.48;;
34144;SDS011;20422;53.014;8.886;2022-11-15T04:15:18;33.90;;;19.80;;
34144;SDS011;20422;53.014;8.886;2022-11-15T04:17:46;35.58;;;20.05;;
34144;SDS011;20422;53.014;8.886;2022-11-15T04:20:24;35.47;;;20.77;;
34144;SDS011;20422;53.014;8.886;2022-11-15T04:23:12;37.22;;;20.48;;
34144;SDS011;20422;53.014;8.886;2022-11-15T04:26:00;31.23;;;19.58;;
34144;SDS011;20422;53.014;8.886;2022-11-15T04:28:29;30.10;;;18.67;;
34144;SDS011;20422;53.014;8.886;2022-11-15T04:30:54;31.83;;;19.67;;
34144;SDS011;20422;53.014;8.886;2022-11-15T04:33:21;35.13;;;19.40;;
34144;SDS011;20422;53.014;8.886;2022-11-15T04:39:03;36.22;;;20.05;;
34144;SDS011;20422;53.014;8.886;2022-11-15T04:41:30;38.90;;;18.30;;
34144;SDS011;20422;53.014;8.886;2022-11-15T04:43:56;31.50;;;18.00;;
34144;SDS011;20422;53.014;8.886;2022-11-15T04:46:23;29.58;;;17.40;;
34144;SDS011;20422;53.014;8.886;2022-11-15T04:48:51;36.58;;;17.77;;
34144;SDS011;20422;53.014;8.886;2022-11-15T04:51:18;26.63;;;16.70;;
34144;SDS011;20422;53.014;8.886;2022-11-15T04:53:44;28.15;;;17.58;;
34144;SDS011;20422;53.014;8.886;2022-11-15T04:56:11;30.40;;;18.10;;
34144;SDS011;20422;53.014;8.886;2022-11-15T04:58:38;29.33;;;17.20;;
34144;SDS011;20422;53.014;8.886;2022-11-15T05:01:11;33.35;;;18.15;;
34144;SDS011;20422;53.014;8.886;2022-11-15T05:03:41;32.80;;;17.98;;
34144;SDS011;20422;53.014;8.886;2022-11-15T05:06:27;28.92;;;17.38;;
34144;SDS011;20422;53.014;8.886;2022-11-15T05:08:54;25.42;;;17.25;;
34144;SDS011;20422;53.014;8.886;2022-11-15T05:11:22;33.13;;;17.33;;
34144;SDS011;20422;53.014;8.886;2022-11-15T05:13:49;26.73;;;17.25;;
34144;SDS011;20422;53.014;8.886;2022-11-15T05:16:16;29.30;;;16.90;;
34144;SDS011;20422;53.014;8.886;2022-11-15T05:18:42;27.67;;;16.35;;
34144;SDS011;20422;53.014;8.886;2022-11-15T05:21:10;27.85;;;17.08;;
34144;SDS011;20422;53.014;8.886;2022-11-15T05:23:40;31.58;;;17.58;;
34144;SDS011;20422;53.014;8.886;2022-11-15T05:26:08;26.65;;;16.55;;
34144;SDS011;20422;53.014;8.886;2022-11-15T05:28:34;27.98;;;16.45;;
34144;SDS011;20422;53.014;8.886;2022-11-15T05:31:09;35.83;;;16.40;;
34144;SDS011;20422;53.014;8.886;2022-11-15T05:33:39;30.42;;;17.50;;
34144;SDS011;20422;53.014;8.886;2022-11-15T05:36:07;32.15;;;16.98;;
34144;SDS011;20422;53.014;8.886;2022-11-15T05:38:40;35.33;;;17.55;;
34144;SDS011;20422;53.014;8.886;2022-11-15T05:41:06;34.78;;;17.63;;
34144;SDS011;20422;53.014;8.886;2022-11-15T05:43:33;31.13;;;16.55;;
34144;SDS011;20422;53.014;8.886;2022-11-15T05:46:04;24.38;;;15.45;;
34144;SDS011;20422;53.014;8.886;2022-11-15T05:48:31;31.80;;;17.40;;
34144;SDS011;20422;53.014;8.886;2022-11-15T05:51:00;27.07;;;16.83;;
34144;SDS011;20422;53.014;8.886;2022-11-15T05:53:29;28.27;;;18.15;;
34144;SDS011;20422;53.014;8.886;2022-11-15T05:55:55;28.55;;;15.40;;
34144;SDS011;20422;53.014;8.886;2022-11-15T05:58:21;25.63;;;15.65;;
34144;SDS011;20422;53.014;8.886;2022-11-15T06:00:48;29.00;;;16.40;;
34144;SDS011;20422;53.014;8.886;2022-11-15T06:03:14;26.50;;;16.45;;
34144;SDS011;20422;53.014;8.886;2022-11-15T06:05:40;37.70;;;17.85;;
34144;SDS011;20422;53.014;8.886;2022-11-15T06:08:06;36.85;;;17.98;;
34144;SDS011;20422;53.014;8.886;2022-11-15T06:10:32;26.15;;;16.13;;
34144;SDS011;20422;53.014;8.886;2022-11-15T06:13:02;31.83;;;18.00;;
34144;SDS011;20422;53.014;8.886;2022-11-15T06:15:32;30.45;;;16.33;;
34144;SDS011;20422;53.014;8.886;2022-11-15T06:17:59;29.08;;;17.15;;
34144;SDS011;20422;53.014;8.886;2022-11-15T06:20:26;28.85;;;18.17;;
34144;SDS011;20422;53.014;8.886;2022-11-15T06:22:58;32.20;;;17.20;;
34144;SDS011;20422;53.014;8.886;2022-11-15T06:25:27;27.80;;;18.02;;
34144;SDS011;20422;53.014;8.886;2022-11-15T06:27:55;28.17;;;16.58;;
34144;SDS011;20422;53.014;8.886;2022-11-15T06:30:22;24.63;;;16.15;;
34144;SDS011;20422;53.014;8.886;2022-11-15T06:32:50;23.63;;;16.67;;
34144;SDS011;20422;53.014;8.886;2022-11-15T06:35:16;26.67;;;16.30;;
34144;SDS011;20422;53.014;8.886;2022-11-15T06:37:42;27.38;;;15.52;;
34144;SDS011;20422;53.014;8.886;2022-11-15T06:40:09;26.10;;;16.50;;
34144;SDS011;20422;53.014;8.886;2022-11-15T06:42:36;26.23;;;15.73;;
34144;SDS011;20422;53.014;8.886;2022-11-15T06:45:02;22.63;;;14.90;;
34144;SDS011;20422;53.014;8.886;2022-11-15T06:47:29;28.23;;;16.17;;
34144;SDS011;20422;53.014;8.886;2022-11-15T06:49:55;22.77;;;15.07;;
34144;SDS011;20422;53.014;8.886;2022-11-15T06:52:22;26.80;;;15.88;;
34144;SDS011;20422;53.014;8.886;2022-11-15T06:54:48;28.60;;;17.40;;
34144;SDS011;20422;53.014;8.886;2022-11-15T06:57:14;24.05;;;16.52;;
34144;SDS011;20422;53.014;8.886;2022-11-15T06:59:40;29.88;;;16.90;;
34144;SDS011;20422;53.014;8.886;2022-11-15T07:02:11;33.83;;;16.65;;
34144;SDS011;20422;53.014;8.886;2022-11-15T07:04:39;27.50;;;16.85;;
34144;SDS011;20422;53.014;8.886;2022-11-15T07:07:04;32.85;;;18.08;;
34144;SDS011;20422;53.014;8.886;2022-11-15T07:09:31;28.58;;;18.15;;
34144;SDS011;20422;53.014;8.886;2022-11-15T07:11:56;29.77;;;17.25;;
34144;SDS011;20422;53.014;8.886;2022-11-15T07:14:22;29.10;;;16.42;;
34144;SDS011;20422;53.014;8.886;2022-11-15T07:16:49;29.80;;;17.75;;
34144;SDS011;20422;53.014;8.886;2022-11-15T07:19:16;29.40;;;17.92;;
34144;SDS011;20422;53.014;8.886;2022-11-15T07:21:43;28.77;;;18.00;;
34144;SDS011;20422;53.014;8.886;2022-11-15T07:24:10;31.30;;;16.80;;
34144;SDS011;20422;53.014;8.886;2022-11-15T07:26:36;31.48;;;17.85;;
34144;SDS011;20422;53.014;8.886;2022-11-15T07:29:01;24.48;;;15.95;;
34144;SDS011;20422;53.014;8.886;2022-11-15T07:31:28;33.63;;;17.95;;
34144;SDS011;20422;53.014;8.886;2022-11-15T07:33:53;30.35;;;17.38;;
34144;SDS011;20422;53.014;8.886;2022-11-15T07:36:20;29.23;;;17.02;;
34144;SDS011;20422;53.014;8.886;2022-11-15T07:38:45;33.45;;;18.55;;
34144;SDS011;20422;53.014;8.886;2022-11-15T07:41:11;28.27;;;17.08;;
34144;SDS011;20422;53.014;8.886;2022-11-15T07:43:37;30.38;;;17.60;;
34144;SDS011;20422;53.014;8.886;2022-11-15T07:46:08;27.65;;;18.00;;
34144;SDS011;20422;53.014;8.886;2022-11-15T07:48:36;23.27;;;16.80;;
34144;SDS011;20422;53.014;8.886;2022-11-15T07:51:06;24.38;;;16.58;;
34144;SDS011;20422;53.014;8.886;2022-11-15T07:53:33;27.98;;;17.30;;
34144;SDS011;20422;53.014;8.886;2022-11-15T07:56:00;29.75;;;17.10;;
34144;SDS011;20422;53.014;8.886;2022-11-15T07:58:26;30.40;;;16.38;;
34144;SDS011;20422;53.014;8.886;2022-11-15T08:00:53;28.48;;;17.60;;
34144;SDS011;20422;53.014;8.886;2022-11-15T08:03:18;32.88;;;16.77;;
34144;SDS011;20422;53.014;8.886;2022-11-15T08:05:49;25.75;;;15.27;;
34144;SDS011;20422;53.014;8.886;2022-11-15T08:08:16;32.10;;;16.00;;
34144;SDS011;20422;53.014;8.886;2022-11-15T08:10:42;23.42;;;15.13;;
34144;SDS011;20422;53.014;8.886;2022-11-15T08:13:09;24.48;;;14.63;;
34144;SDS011;20422;53.014;8.886;2022-11-15T08:15:37;26.13;;;15.43;;
34144;SDS011;20422;53.014;8.886;2022-11-15T08:18:06;20.67;;;14.60;;
34144;SDS011;20422;53.014;8.886;2022-11-15T08:20:37;19.52;;;12.73;;
34144;SDS011;20422;53.014;8.886;2022-11-15T08:23:04;24.50;;;13.85;;
34144;SDS011;20422;53.014;8.886;2022-11-15T08:25:32;20.77;;;13.07;;
34144;SDS011;20422;53.014;8.886;2022-11-15T08:27:59;27.10;;;13.82;;
34144;SDS011;20422;53.014;8.886;2022-11-15T08:30:26;21.73;;;13.73;;
34144;SDS011;20422;53.014;8.886;2022-11-15T08:32:55;18.85;;;13.30;;
34144;SDS011;20422;53.014;8.886;2022-11-15T08:35:22;22.77;;;13.00;;
34144;SDS011;20422;53.014;8.886;2022-11-15T08:37:49;23.52;;;14.05;;
34144;SDS011;20422;53.014;8.886;2022-11-15T08:40:19;24.65;;;14.55;;
34144;SDS011;20422;53.014;8.886;2022-11-15T08:42:51;23.65;;;13.85;;
34144;SDS011;20422;53.014;8.886;2022-11-15T08:45:17;19.73;;;13.65;;
34144;SDS011;20422;53.014;8.886;2022-11-15T08:47:43;24.77;;;12.40;;
34144;SDS011;20422;53.014;8.886;2022-11-15T08:50:09;20.27;;;13.50;;
34144;SDS011;20422;53.014;8.886;2022-11-15T08:52:35;26.38;;;13.80;;
34144;SDS011;20422;53.014;8.886;2022-11-15T08:55:01;21.48;;;13.30;;
34144;SDS011;20422;53.014;8.886;2022-11-15T08:57:29;19.45;;;12.75;;
34144;SDS011;20422;53.014;8.886;2022-11-15T08:59:56;21.20;;;12.70;;
34144;SDS011;20422;53.014;8.886;2022-11-15T09:02:23;18.08;;;12.52;;
34144;SDS011;20422;53.014;8.886;2022-11-15T09:04:49;18.30;;;12.20;;
34144;SDS011;20422;53.014;8.886;2022-11-15T09:07:15;22.15;;;14.13;;
34144;SDS011;20422;53.014;8.886;2022-11-15T09:09:42;21.83;;;12.95;;
34144;SDS011;20422;53.014;8.886;2022-11-15T09:12:09;22.90;;;13.88;;
34144;SDS011;20422;53.014;8.886;2022-11-15T09:14:36;24.63;;;13.65;;
34144;SDS011;20422;53.014;8.886;2022-11-15T09:17:03;22.23;;;13.68;;
34144;SDS011;20422;53.014;8.886;2022-11-15T09:19:28;21.90;;;12.63;;
34144;SDS011;20422;53.014;8.886;2022-11-15T09:21:55;19.83;;;12.32;;
34144;SDS011;20422;53.014;8.886;2022-11-15T09:24:22;23.52;;;11.85;;
34144;SDS011;20422;53.014;8.886;2022-11-15T09:26:49;20.27;;;12.73;;
34144;SDS011;20422;53.014;8.886;2022-11-15T09:29:17;21.00;;;12.70;;
34144;SDS011;20422;53.014;8.886;2022-11-15T09:31:43;18.60;;;11.90;;
34144;SDS011;20422;53.014;8.886;2022-11-15T09:34:10;20.35;;;13.23;;
34144;SDS011;20422;53.014;8.886;2022-11-15T09:36:36;20.83;;;13.75;;
34144;SDS011;20422;53.014;8.886;2022-11-15T09:39:02;18.05;;;12.13;;
34144;SDS011;20422;53.014;8.886;2022-11-15T09:41:33;21.65;;;12.25;;
34144;SDS011;20422;53.014;8.886;2022-11-15T09:49:51;17.40;;;10.90;;
34144;SDS011;20422;53.014;8.886;2022-11-15T09:52:19;17.50;;;10.25;;
34144;SDS011;20422;53.014;8.886;2022-11-15T09:54:47;16.48;;;10.75;;
34144;SDS011;20422;53.014;8.886;2022-11-15T10:00:09;21.00;;;10.13;;
34144;SDS011;20422;53.014;8.886;2022-11-15T10:03:08;12.88;;;9.80;;
34144;SDS011;20422;53.014;8.886;2022-11-15T10:05:39;12.88;;;8.95;;
34144;SDS011;20422;53.014;8.886;2022-11-15T10:10:57;14.77;;;9.55;;
34144;SDS011;20422;53.014;8.886;2022-11-15T10:13:34;12.60;;;8.13;;
34144;SDS011;20422;53.014;8.886;2022-11-15T10:24:18;13.18;;;8.65;;
34144;SDS011;20422;53.014;8.886;2022-11-15T10:26:48;16.45;;;8.82;;
34144;SDS011;20422;53.014;8.886;2022-11-15T10:29:20;15.27;;;9.32;;
34144;SDS011;20422;53.014;8.886;2022-11-15T10:31:48;18.13;;;8.95;;
34144;SDS011;20422;53.014;8.886;2022-11-15T10:34:18;16.55;;;9.32;;
34144;SDS011;20422;53.014;8.886;2022-11-15T10:39:21;10.75;;;7.35;;
34144;SDS011;20422;53.014;8.886;2022-11-15T10:41:48;14.23;;;7.85;;
34144;SDS011;20422;53.014;8.886;2022-11-15T10:44:18;12.68;;;7.80;;
34144;SDS011;20422;53.014;8.886;2022-11-15T10:49:26;16.73;;;7.63;;
34144;SDS011;20422;53.014;8.886;2022-11-15T10:52:29;17.17;;;8.10;;
34144;SDS011;20422;53.014;8.886;2022-11-15T10:57:35;13.32;;;7.45;;
34144;SDS011;20422;53.014;8.886;2022-11-15T11:02:39;11.75;;;7.55;;
34144;SDS011;20422;53.014;8.886;2022-11-15T11:08:02;12.88;;;7.00;;
34144;SDS011;20422;53.014;8.886;2022-11-15T11:10:31;11.25;;;6.80;;
34144;SDS011;20422;53.014;8.886;2022-11-15T11:13:12;10.00;;;6.18;;
34144;SDS011;20422;53.014;8.886;2022-11-15T11:15:39;10.35;;;6.72;;
34144;SDS011;20422;53.014;8.886;2022-11-15T11:18:15;8.85;;;5.50;;
34144;SDS011;20422;53.014;8.886;2022-11-15T11:21:15;10.48;;;6.90;;
34144;SDS011;20422;53.014;8.886;2022-11-15T11:23:49;9.63;;;6.18;;
34144;SDS011;20422;53.014;8.886;2022-11-15T11:26:42;11.90;;;5.93;;
34144;SDS011;20422;53.014;8.886;2022-11-15T11:49:06;9.20;;;5.30;;
34144;SDS011;20422;53.014;8.886;2022-11-15T12:00:33;6.75;;;4.63;;
34144;SDS011;20422;53.014;8.886;2022-11-15T12:03:20;7.35;;;4.47;;
34144;SDS011;20422;53.014;8.886;2022-11-15T12:06:17;6.85;;;3.97;;
34144;SDS011;20422;53.014;8.886;2022-11-15T12:11:48;5.10;;;3.35;;
34144;SDS011;20422;53.014;8.886;2022-11-15T12:17:03;6.15;;;4.05;;
34144;SDS011;20422;53.014;8.886;2022-11-15T12:19:29;4.97;;;3.88;;
34144;SDS011;20422;53.014;8.886;2022-11-15T12:22:12;9.40;;;4.05;;
34144;SDS011;20422;53.014;8.886;2022-11-15T12:24:56;8.50;;;4.93;;
34144;SDS011;20422;53.014;8.886;2022-11-15T12:28:07;8.85;;;4.55;;
34144;SDS011;20422;53.014;8.886;2022-11-15T12:30:43;5.22;;;4.35;;
34144;SDS011;20422;53.014;8.886;2022-11-15T12:39:03;7.55;;;4.00;;
34144;SDS011;20422;53.014;8.886;2022-11-15T12:41:32;6.15;;;2.90;;
34144;SDS011;20422;53.014;8.886;2022-11-15T12:44:01;9.02;;;4.03;;
34144;SDS011;20422;53.014;8.886;2022-11-15T12:49:03;5.22;;;3.75;;
34144;SDS011;20422;53.014;8.886;2022-11-15T12:52:08;13.18;;;4.20;;
34144;SDS011;20422;53.014;8.886;2022-11-15T12:59:47;5.35;;;3.20;;
34144;SDS011;20422;53.014;8.886;2022-11-15T13:02:36;4.27;;;3.07;;
34144;SDS011;20422;53.014;8.886;2022-11-15T13:07:57;3.85;;;2.88;;
34144;SDS011;20422;53.014;8.886;2022-11-15T13:12:54;2.83;;;2.10;;
34144;SDS011;20422;53.014;8.886;2022-11-15T13:18:38;4.70;;;2.00;;
34144;SDS011;20422;53.014;8.886;2022-11-15T13:21:16;3.45;;;1.95;;
34144;SDS011;20422;53.014;8.886;2022-11-15T13:24:04;3.90;;;1.70;;
34144;SDS011;20422;53.014;8.886;2022-11-15T13:26:37;2.83;;;2.10;;
34144;SDS011;20422;53.014;8.886;2022-11-15T13:29:12;4.05;;;2.38;;
34144;SDS011;20422;53.014;8.886;2022-11-15T13:31:42;5.75;;;2.20;;
34144;SDS011;20422;53.014;8.886;2022-11-15T13:39:49;4.05;;;3.30;;
34144;SDS011;20422;53.014;8.886;2022-11-15T13:42:17;2.55;;;2.28;;
34144;SDS011;20422;53.014;8.886;2022-11-15T13:45:03;4.32;;;1.90;;
34144;SDS011;20422;53.014;8.886;2022-11-15T13:47:31;3.20;;;2.60;;
34144;SDS011;20422;53.014;8.886;2022-11-15T13:49:58;2.45;;;2.25;;
34144;SDS011;20422;53.014;8.886;2022-11-15T13:52:30;5.45;;;2.85;;
34144;SDS011;20422;53.014;8.886;2022-11-15T13:55:15;6.45;;;5.15;;
34144;SDS011;20422;53.014;8.886;2022-11-15T13:57:48;4.30;;;3.03;;
34144;SDS011;20422;53.014;8.886;2022-11-15T14:03:14;4.50;;;3.47;;
34144;SDS011;20422;53.014;8.886;2022-11-15T14:06:06;3.25;;;1.75;;
34144;SDS011;20422;53.014;8.886;2022-11-15T14:08:39;7.28;;;1.77;;
34144;SDS011;20422;53.014;8.886;2022-11-15T14:14:29;2.60;;;2.08;;
34144;SDS011;20422;53.014;8.886;2022-11-15T14:16:35;3.05;;;1.88;;
34144;SDS011;20422;53.014;8.886;2022-11-15T14:19:04;5.05;;;3.42;;
34144;SDS011;20422;53.014;8.886;2022-11-15T14:21:32;3.83;;;3.08;;
34144;SDS011;20422;53.014;8.886;2022-11-15T14:24:17;8.18;;;4.25;;
34144;SDS011;20422;53.014;8.886;2022-11-15T14:26:46;5.75;;;2.15;;
34144;SDS011;20422;53.014;8.886;2022-11-15T14:29:26;9.35;;;5.43;;
34144;SDS011;20422;53.014;8.886;2022-11-15T14:31:53;2.83;;;2.20;;
34144;SDS011;20422;53.014;8.886;2022-11-15T14:34:19;1.67;;;1.35;;
34144;SDS011;20422;53.014;8.886;2022-11-15T14:36:47;1.77;;;1.30;;
34144;SDS011;20422;53.014;8.886;2022-11-15T14:39:13;4.88;;;1.80;;
34144;SDS011;20422;53.014;8.886;2022-11-15T14:41:39;3.70;;;1.45;;
34144;SDS011;20422;53.014;8.886;2022-11-15T14:44:06;6.13;;;2.20;;
34144;SDS011;20422;53.014;8.886;2022-11-15T14:46:37;8.70;;;2.88;;
34144;SDS011;20422;53.014;8.886;2022-11-15T14:49:02;4.65;;;1.73;;
34144;SDS011;20422;53.014;8.886;2022-11-15T14:51:28;3.15;;;2.33;;
34144;SDS011;20422;53.014;8.886;2022-11-15T14:53:55;5.15;;;1.95;;
34144;SDS011;20422;53.014;8.886;2022-11-15T14:56:20;6.75;;;2.60;;
34144;SDS011;20422;53.014;8.886;2022-11-15T14:58:47;3.22;;;2.20;;
34144;SDS011;20422;53.014;8.886;2022-11-15T15:01:20;4.53;;;2.30;;
34144;SDS011;20422;53.014;8.886;2022-11-15T15:03:50;4.65;;;1.98;;
34144;SDS011;20422;53.014;8.886;2022-11-15T15:08:46;7.30;;;2.35;;
34144;SDS011;20422;53.014;8.886;2022-11-15T15:11:14;6.53;;;3.17;;
34144;SDS011;20422;53.014;8.886;2022-11-15T15:13:43;2.88;;;2.58;;
34144;SDS011;20422;53.014;8.886;2022-11-15T15:16:09;5.28;;;2.95;;
34144;SDS011;20422;53.014;8.886;2022-11-15T15:18:35;6.45;;;2.20;;
34144;SDS011;20422;53.014;8.886;2022-11-15T15:21:01;4.88;;;2.95;;
34144;SDS011;20422;53.014;8.886;2022-11-15T15:23:32;5.18;;;2.67;;
34144;SDS011;20422;53.014;8.886;2022-11-15T15:25:59;6.22;;;2.88;;
34144;SDS011;20422;53.014;8.886;2022-11-15T15:28:25;6.18;;;3.17;;
34144;SDS011;20422;53.014;8.886;2022-11-15T15:30:52;5.75;;;3.17;;
34144;SDS011;20422;53.014;8.886;2022-11-15T15:33:19;4.80;;;3.25;;
34144;SDS011;20422;53.014;8.886;2022-11-15T15:35:44;14.75;;;5.53;;
34144;SDS011;20422;53.014;8.886;2022-11-15T15:38:12;6.72;;;3.80;;
34144;SDS011;20422;53.014;8.886;2022-11-15T15:40:39;4.80;;;3.08;;
34144;SDS011;20422;53.014;8.886;2022-11-15T15:43:06;6.80;;;3.70;;
34144;SDS011;20422;53.014;8.886;2022-11-15T15:45:36;7.93;;;3.63;;
34144;SDS011;20422;53.014;8.886;2022-11-15T15:48:03;7.07;;;3.63;;
34144;SDS011;20422;53.014;8.886;2022-11-15T15:50:31;6.38;;;3.83;;
34144;SDS011;20422;53.014;8.886;2022-11-15T15:52:59;5.50;;;3.05;;
34144;SDS011;20422;53.014;8.886;2022-11-15T15:55:26;6.40;;;3.67;;
34144;SDS011;20422;53.014;8.886;2022-11-15T15:57:52;5.22;;;3.53;;
34144;SDS011;20422;53.014;8.886;2022-11-15T16:00:20;5.43;;;3.60;;
34144;SDS011;20422;53.014;8.886;2022-11-15T16:02:49;4.80;;;3.30;;
34144;SDS011;20422;53.014;8.886;2022-11-15T16:05:16;7.90;;;3.50;;
34144;SDS011;20422;53.014;8.886;2022-11-15T16:07:42;5.35;;;3.80;;
34144;SDS011;20422;53.014;8.886;2022-11-15T16:10:22;5.20;;;3.28;;
34144;SDS011;20422;53.014;8.886;2022-11-15T16:12:52;8.52;;;3.40;;
34144;SDS011;20422;53.014;8.886;2022-11-15T16:15:19;5.78;;;3.40;;
34144;SDS011;20422;53.014;8.886;2022-11-15T16:17:56;6.22;;;3.47;;
34144;SDS011;20422;53.014;8.886;2022-11-15T16:20:29;7.32;;;4.95;;
34144;SDS011;20422;53.014;8.886;2022-11-15T16:22:56;6.45;;;3.88;;
34144;SDS011;20422;53.014;8.886;2022-11-15T16:25:23;5.60;;;3.75;;
34144;SDS011;20422;53.014;8.886;2022-11-15T16:27:51;5.10;;;3.67;;
34144;SDS011;20422;53.014;8.886;2022-11-15T16:30:18;7.93;;;3.75;;
34144;SDS011;20422;53.014;8.886;2022-11-15T16:32:48;6.72;;;4.15;;
34144;SDS011;20422;53.014;8.886;2022-11-15T16:35:15;5.07;;;3.67;;
34144;SDS011;20422;53.014;8.886;2022-11-15T16:37:42;5.30;;;4.18;;
34144;SDS011;20422;53.014;8.886;2022-11-15T16:40:20;10.00;;;4.68;;
34144;SDS011;20422;53.014;8.886;2022-11-15T16:42:51;8.82;;;5.13;;
34144;SDS011;20422;53.014;8.886;2022-11-15T16:45:17;9.07;;;4.40;;
34144;SDS011;20422;53.014;8.886;2022-11-15T16:47:43;7.88;;;4.70;;
34144;SDS011;20422;53.014;8.886;2022-11-15T16:50:20;7.70;;;4.30;;
34144;SDS011;20422;53.014;8.886;2022-11-15T16:52:51;8.75;;;4.55;;
34144;SDS011;20422;53.014;8.886;2022-11-15T16:55:20;8.50;;;4.35;;
34144;SDS011;20422;53.014;8.886;2022-11-15T16:57:48;9.02;;;4.40;;
34144;SDS011;20422;53.014;8.886;2022-11-15T17:00:15;7.40;;;4.40;;
34144;SDS011;20422;53.014;8.886;2022-11-15T17:02:44;6.82;;;4.90;;
34144;SDS011;20422;53.014;8.886;2022-11-15T17:05:12;8.55;;;5.75;;
34144;SDS011;20422;53.014;8.886;2022-11-15T17:07:40;7.97;;;4.35;;
34144;SDS011;20422;53.014;8.886;2022-11-15T17:10:07;8.75;;;5.15;;